Time;durP1;ratioP1;P1;durP2;ratioP2;P2;SDS_P1;SDS_P2;PMS_P1;PMS_P2;Temp;Humidity;BMP_temperature;BMP_pressure;BME280_temperature;BME280_humidity;BME280_pressure;Samples;Min_cycle;Max_cycle;Signal;HPM_P1;HPM_P2
2023/09/18 00:00:24;;;;;;;14.32;8.45;;;;;;;20.25;95.28;100937.63;10381968;28;20879;-67
2023/09/18 00:05:48;;;;;;;10.02;8.30;;;;;;;20.19;95.58;100931.94;10377636;28;20128;-67
2023/09/18 00:11:11;;;;;;;9.98;8.65;;;;;;;20.12;96.02;100935.91;10382792;28;20038;-67
2023/09/18 00:16:33;;;;;;;10.18;8.00;;;;;;;20.06;96.01;100921.38;10382351;28;20060;-67
2023/09/18 00:22:12;;;;;;;10.93;8.68;;;;;;;20.03;95.99;100913.72;10378996;28;20045;-67
2023/09/18 00:27:35;;;;;;;11.68;9.38;;;;;;;20.00;96.38;100901.63;10388987;28;20050;-67
2023/09/18 00:32:57;;;;;;;12.45;10.02;;;;;;;19.97;96.64;100893.09;10374569;28;20068;-67
2023/09/18 00:38:19;;;;;;;11.30;9.85;;;;;;;19.93;96.56;100867.97;10379560;28;20053;-66
2023/09/18 00:43:41;;;;;;;15.40;10.20;;;;;;;19.91;97.18;100849.69;10383108;28;20088;-67
2023/09/18 00:49:03;;;;;;;11.82;10.50;;;;;;;19.90;98.21;100841.94;10400860;28;20077;-67
2023/09/18 00:54:26;;;;;;;11.90;10.02;;;;;;;19.90;97.82;100815.66;10373030;28;20073;-67
2023/09/18 00:59:48;;;;;;;14.95;11.32;;;;;;;19.91;98.28;100806.81;10383381;28;20076;-67
2023/09/18 01:05:09;;;;;;;15.13;11.77;;;;;;;19.89;98.25;100787.69;10382440;28;20049;-67
2023/09/18 01:10:48;;;;;;;16.45;12.48;;;;;;;19.87;99.12;100779.94;10383488;28;20045;-67
2023/09/18 01:16:17;;;;;;;16.27;13.52;;;;;;;19.86;99.41;100772.16;10398910;28;20165;-66
2023/09/18 01:21:39;;;;;;;15.35;13.10;;;;;;;19.83;100.00;100767.94;10393368;28;20060;-66
2023/09/18 01:27:01;;;;;;;15.18;12.70;;;;;;;19.80;99.85;100762.91;10390905;28;20156;-67
2023/09/18 01:32:27;;;;;;;17.50;13.65;;;;;;;19.84;99.79;100753.03;10375920;28;20041;-66
2023/09/18 01:37:50;;;;;;;14.82;12.07;;;;;;;19.76;99.68;100750.13;10382705;28;20054;-67
2023/09/18 01:43:12;;;;;;;17.45;12.10;;;;;;;19.74;99.84;100744.13;10380464;28;20501;-67
2023/09/18 01:48:34;;;;;;;13.82;12.30;;;;;;;19.70;100.00;100727.75;10386157;28;20485;-67
2023/09/18 01:53:56;;;;;;;13.45;11.95;;;;;;;19.70;99.73;100724.28;10385366;28;20049;-66
2023/09/18 01:59:18;;;;;;;15.45;11.70;;;;;;;19.69;99.67;100730.44;10382897;28;20047;-67
2023/09/18 02:04:40;;;;;;;12.82;11.00;;;;;;;19.66;99.59;100722.78;10379742;28;20518;-66
2023/09/18 02:10:22;;;;;;;12.30;10.82;;;;;;;19.60;99.80;100724.06;10385270;28;20405;-66
2023/09/18 02:15:46;;;;;;;12.32;10.73;;;;;;;19.61;100.00;100724.91;10379738;28;20088;-66
2023/09/18 02:21:07;;;;;;;12.02;10.40;;;;;;;19.58;99.88;100719.84;10393362;28;20054;-66
2023/09/18 02:26:29;;;;;;;11.57;10.20;;;;;;;19.56;99.71;100716.47;10374615;28;20049;-66
2023/09/18 02:31:51;;;;;;;15.88;10.45;;;;;;;19.55;99.91;100715.66;10378227;28;20058;-66
2023/09/18 02:37:13;;;;;;;15.25;9.88;;;;;;;19.54;99.73;100710.53;10388663;28;20041;-67
2023/09/18 02:42:34;;;;;;;12.63;10.25;;;;;;;19.52;99.90;100696.66;10384764;28;20389;-67
2023/09/18 02:47:56;;;;;;;13.63;10.45;;;;;;;19.49;99.90;100674.06;10405082;28;20045;-67
2023/09/18 02:53:22;;;;;;;11.65;9.60;;;;;;;19.48;100.00;100674.19;10406786;28;20060;-66
2023/09/18 02:58:44;;;;;;;13.52;9.32;;;;;;;19.48;99.94;100667.16;10385510;28;20046;-65
2023/09/18 03:04:06;;;;;;;10.95;8.85;;;;;;;19.49;99.85;100652.22;10386747;28;20061;-66
2023/09/18 03:09:29;;;;;;;15.35;9.98;;;;;;;19.47;99.79;100649.72;10389749;28;20623;-66
2023/09/18 03:14:51;;;;;;;11.25;9.10;;;;;;;19.45;100.00;100640.28;10386768;28;20053;-67
2023/09/18 03:20:13;;;;;;;11.60;9.45;;;;;;;19.44;99.95;100622.84;10394793;28;20045;-66
2023/09/18 03:25:35;;;;;;;14.38;9.27;;;;;;;19.44;100.00;100601.84;10389941;28;20691;-66
2023/09/18 03:31:12;;;;;;;10.52;8.77;;;;;;;19.45;99.86;100598.28;10398677;28;20471;-66
2023/09/18 03:36:35;;;;;;;16.50;8.98;;;;;;;19.44;99.77;100586.09;10391247;28;20081;-66
2023/09/18 03:41:57;;;;;;;10.70;8.45;;;;;;;19.41;100.00;100567.94;10387493;28;20529;-66
2023/09/18 03:47:19;;;;;;;12.23;8.43;;;;;;;19.43;99.61;100573.94;10400255;28;20056;-67
2023/09/18 03:52:40;;;;;;;11.07;8.45;;;;;;;19.40;99.74;100542.63;10376835;28;20045;-66
2023/09/18 03:58:04;;;;;;;10.50;8.40;;;;;;;19.40;99.65;100511.13;10384655;28;20054;-66
2023/09/18 04:03:25;;;;;;;13.23;7.90;;;;;;;19.39;99.63;100510.31;10377021;28;20045;-66
2023/09/18 04:08:47;;;;;;;10.55;7.72;;;;;;;19.39;99.18;100494.56;10370123;28;20053;-67
2023/09/18 04:14:09;;;;;;;8.80;7.57;;;;;;;19.38;99.27;100482.38;10375630;28;20489;-66
2023/09/18 04:19:31;;;;;;;10.75;7.20;;;;;;;19.38;98.86;100465.78;10384554;28;20517;-66
2023/09/18 04:24:53;;;;;;;12.18;7.35;;;;;;;19.37;99.00;100454.47;10392880;28;20143;-67
2023/09/18 04:30:15;;;;;;;9.88;7.40;;;;;;;19.37;99.25;100448.38;10379704;28;20034;-67
2023/09/18 04:35:39;;;;;;;9.10;7.00;;;;;;;19.36;99.35;100430.94;10384828;28;20056;-67
2023/09/18 04:41:01;;;;;;;11.43;7.47;;;;;;;19.37;99.42;100422.13;10384411;28;20808;-67
2023/09/18 04:46:24;;;;;;;10.63;7.10;;;;;;;19.37;99.26;100401.13;10386723;28;20060;-66
2023/09/18 04:51:46;;;;;;;10.70;7.50;;;;;;;19.36;99.37;100387.16;10377237;28;20052;-66
2023/09/18 04:57:07;;;;;;;16.17;7.30;;;;;;;19.36;99.16;100368.81;10377186;28;20173;-67
2023/09/18 05:02:30;;;;;;;11.75;7.75;;;;;;;19.35;99.15;100363.66;10368485;28;20050;-68
2023/09/18 05:07:52;;;;;;;10.40;7.10;;;;;;;19.34;99.29;100360.19;10386374;28;20104;-67
2023/09/18 05:13:13;;;;;;;11.93;7.70;;;;;;;19.36;98.89;100357.47;10378515;28;20049;-67
2023/09/18 05:18:36;;;;;;;9.10;7.50;;;;;;;19.35;99.21;100359.28;10377042;28;20057;-68
2023/09/18 05:23:57;;;;;;;10.73;6.90;;;;;;;19.39;98.95;100352.00;10379832;28;20464;-67
2023/09/18 05:29:19;;;;;;;10.48;7.40;;;;;;;19.41;98.69;100339.59;10374006;28;20140;-68
2023/09/18 05:34:41;;;;;;;9.68;6.95;;;;;;;19.43;98.94;100335.09;10383710;28;20707;-68
2023/09/18 05:40:10;;;;;;;12.07;7.05;;;;;;;19.49;98.72;100338.06;10369722;28;20045;-68
2023/09/18 05:45:33;;;;;;;10.00;6.38;;;;;;;19.59;97.80;100327.72;10384417;28;20052;-68
2023/09/18 05:50:55;;;;;;;8.82;6.07;;;;;;;19.62;97.93;100304.72;10393549;28;20057;-67
2023/09/18 05:56:17;;;;;;;10.18;5.57;;;;;;;19.68;97.17;100288.50;10380384;28;20470;-68
2023/09/18 06:01:39;;;;;;;13.32;5.82;;;;;;;19.74;97.19;100281.94;10382932;28;20064;-67
2023/09/18 06:07:00;;;;;;;8.52;5.90;;;;;;;19.78;96.62;100281.56;10364218;28;20057;-69
2023/09/18 06:12:22;;;;;;;10.20;5.65;;;;;;;19.84;96.62;100272.38;10384021;28;20125;-68
2023/09/18 06:17:44;;;;;;;9.20;5.57;;;;;;;19.86;96.46;100257.34;10395829;28;20646;-69
2023/09/18 06:23:06;;;;;;;9.40;6.10;;;;;;;19.92;96.64;100272.66;10397921;28;20053;-69
2023/09/18 06:28:28;;;;;;;9.60;5.88;;;;;;;19.99;95.86;100297.47;10383131;28;20164;-69
2023/09/18 06:33:50;;;;;;;10.15;5.75;;;;;;;20.02;95.69;100284.09;10382380;28;20060;-68
2023/09/18 06:39:11;;;;;;;7.60;5.90;;;;;;;20.09;94.68;100280.03;10370995;28;20046;-69
2023/09/18 06:44:33;;;;;;;8.80;4.90;;;;;;;20.20;94.31;100287.13;10399886;28;20054;-68
2023/09/18 06:49:55;;;;;;;8.10;5.05;;;;;;;20.30;93.50;100291.53;10395025;28;20199;-69
2023/09/18 06:55:17;;;;;;;8.50;5.18;;;;;;;20.36;93.30;100298.94;10380931;28;20064;-69
2023/09/18 07:00:39;;;;;;;7.13;5.13;;;;;;;20.41;93.62;100288.06;10379244;28;20052;-69
2023/09/18 07:06:00;;;;;;;12.73;5.45;;;;;;;20.43;93.03;100284.34;10377128;28;20046;-68
2023/09/18 07:11:22;;;;;;;5.25;4.25;;;;;;;20.46;93.38;100278.84;10395187;28;20065;-68
2023/09/18 07:16:47;;;;;;;5.90;4.30;;;;;;;20.56;92.83;100286.84;10369676;28;20520;-68
2023/09/18 07:22:08;;;;;;;8.52;4.53;;;;;;;20.63;92.33;100278.34;10363844;28;20045;-67
2023/09/18 07:27:30;;;;;;;7.70;4.90;;;;;;;20.69;92.44;100280.44;10372790;28;20060;-66
2023/09/18 07:32:51;;;;;;;9.60;4.88;;;;;;;20.73;92.19;100271.38;10373394;28;20041;-66
2023/09/18 07:38:13;;;;;;;7.43;4.55;;;;;;;20.74;92.07;100266.94;10398401;28;20045;-66
2023/09/18 07:43:35;;;;;;;7.53;4.65;;;;;;;20.78;91.79;100269.22;10381630;28;20049;-68
2023/09/18 07:48:57;;;;;;;8.60;4.53;;;;;;;20.81;92.09;100281.28;10371319;28;20053;-68
2023/09/18 07:54:19;;;;;;;5.90;4.40;;;;;;;20.78;92.02;100274.47;10370091;28;20494;-68
2023/09/18 07:59:41;;;;;;;10.60;4.50;;;;;;;20.85;91.89;100270.38;10375294;28;20066;-69
2023/09/18 08:05:04;;;;;;;10.45;4.30;;;;;;;20.89;91.89;100274.41;10394859;28;20564;-69
2023/09/18 08:10:26;;;;;;;5.65;4.30;;;;;;;20.90;90.94;100277.88;10380495;28;20515;-69
2023/09/18 08:15:48;;;;;;;7.43;4.53;;;;;;;20.97;90.86;100300.94;10388751;28;20049;-69
2023/09/18 08:21:10;;;;;;;10.48;4.15;;;;;;;20.98;92.07;100307.91;10374498;28;20119;-69
2023/09/18 08:26:32;;;;;;;11.13;4.80;;;;;;;20.85;93.96;100306.38;10374938;28;20161;-69
2023/09/18 08:31:54;;;;;;;9.20;4.90;;;;;;;20.73;96.25;100317.91;10367122;28;20719;-71
2023/09/18 08:37:15;;;;;;;8.75;5.00;;;;;;;20.61;97.71;100314.44;10382282;28;20042;-72
2023/09/18 08:42:45;;;;;;;7.75;5.10;;;;;;;20.57;98.88;100323.53;10381079;28;20037;-71
2023/09/18 08:48:08;;;;;;;7.15;5.28;;;;;;;20.55;97.40;100317.53;10370908;28;20045;-72
2023/09/18 08:53:35;;;;;;;10.13;4.97;;;;;;;20.55;99.38;100308.81;10363504;28;20049;-72
2023/09/18 08:58:59;;;;;;;11.23;5.22;;;;;;;20.63;97.34;100306.44;10371409;28;20064;-71
2023/09/18 09:04:21;;;;;;;9.73;4.82;;;;;;;20.68;97.51;100320.88;10370349;28;20726;-71
2023/09/18 09:09:43;;;;;;;11.65;4.55;;;;;;;20.76;96.33;100297.44;10381635;28;20136;-71
2023/09/18 09:15:05;;;;;;;14.00;4.70;;;;;;;20.92;96.19;100299.66;10415861;28;20053;-70
2023/09/18 09:20:27;;;;;;;9.05;4.45;;;;;;;21.02;95.87;100296.16;10411826;28;20048;-71
2023/09/18 09:25:49;;;;;;;10.57;4.13;;;;;;;21.17;95.00;100301.16;10409819;28;20048;-71
2023/09/18 09:31:11;;;;;;;10.73;4.35;;;;;;;21.29;93.52;100315.94;10418001;28;20422;-71
2023/09/18 09:36:33;;;;;;;11.68;3.85;;;;;;;21.30;94.53;100317.63;10415296;28;20185;-71
2023/09/18 09:41:54;;;;;;;8.80;3.85;;;;;;;21.35;93.12;100323.34;10404028;28;20429;-72
2023/09/18 09:47:17;;;;;;;12.07;4.53;;;;;;;21.42;92.25;100311.31;10426888;28;20103;-70
2023/09/18 09:52:50;;;;;;;7.82;4.20;;;;;;;21.50;93.18;100298.38;10422583;28;20049;-71
2023/09/18 09:58:13;;;;;;;12.15;3.92;;;;;;;21.60;91.60;100283.44;10422276;28;20242;-70
2023/09/18 10:03:37;;;;;;;8.18;3.95;;;;;;;21.68;91.40;100281.00;10441367;28;20045;-71
2023/09/18 10:09:06;;;;;;;8.18;3.90;;;;;;;21.74;90.71;100283.09;10430556;28;20063;-71
2023/09/18 10:14:34;;;;;;;13.90;4.15;;;;;;;21.81;90.94;100297.50;10438021;28;20045;-71
2023/09/18 10:20:19;;;;;;;8.98;4.05;;;;;;;21.84;89.91;100307.75;10411765;28;20067;-71
2023/09/18 10:25:41;;;;;;;10.23;3.63;;;;;;;21.85;90.16;100296.25;10420808;28;20045;-71
2023/09/18 10:31:03;;;;;;;8.02;3.60;;;;;;;21.86;89.73;100305.81;10418753;28;20057;-70
2023/09/18 10:36:26;;;;;;;7.43;3.83;;;;;;;21.88;89.59;100330.25;10444704;28;20064;-71
2023/09/18 10:41:48;;;;;;;12.75;4.68;;;;;;;21.91;88.99;100332.63;10432605;28;20124;-71
2023/09/18 10:47:11;;;;;;;5.35;3.38;;;;;;;22.01;88.35;100335.31;10439381;28;20045;-70
2023/09/18 10:52:36;;;;;;;7.95;3.40;;;;;;;22.08;88.92;100347.84;10437776;28;20053;-71
2023/09/18 10:57:59;;;;;;;5.93;3.73;;;;;;;22.24;88.67;100358.75;10432286;28;20518;-70
2023/09/18 11:03:23;;;;;;;7.10;3.53;;;;;;;22.31;88.08;100354.59;10430634;28;20061;-70
2023/09/18 11:08:46;;;;;;;7.57;3.47;;;;;;;22.33;87.85;100355.31;10428132;28;20108;-70
2023/09/18 11:14:11;;;;;;;6.53;3.40;;;;;;;22.31;87.19;100359.88;10432187;28;20048;-70
2023/09/18 11:19:33;;;;;;;7.97;3.38;;;;;;;22.29;87.56;100351.25;10433921;28;20051;-69
2023/09/18 11:25:47;;;;;;;5.85;2.67;;;;;;;22.33;86.82;100326.31;10436432;28;20049;-70
2023/09/18 11:31:10;;;;;;;4.95;2.47;;;;;;;22.39;86.47;100352.16;10444007;28;20560;-71
2023/09/18 11:36:32;;;;;;;6.85;2.40;;;;;;;22.46;86.57;100341.88;10418324;28;20472;-71
2023/09/18 11:42:06;;;;;;;4.55;2.60;;;;;;;22.55;85.80;100344.59;10441056;28;20041;-70
2023/09/18 11:47:29;;;;;;;5.13;2.28;;;;;;;22.63;85.75;100349.22;10437311;28;20088;-70
2023/09/18 11:52:52;;;;;;;4.47;2.10;;;;;;;22.67;83.35;100351.44;10427977;28;20126;-70
2023/09/18 11:58:14;;;;;;;4.20;1.90;;;;;;;22.80;82.05;100357.31;10426899;28;20474;-70
2023/09/18 12:03:36;;;;;;;4.45;1.80;;;;;;;22.89;81.76;100360.97;10430580;28;20047;-70
2023/09/18 12:08:58;;;;;;;5.22;1.90;;;;;;;22.96;82.37;100357.59;10440295;28;20515;-71
2023/09/18 12:14:23;;;;;;;2.17;1.40;;;;;;;23.05;81.22;100350.69;10426239;28;20347;-70
2023/09/18 12:19:55;;;;;;;12.02;1.70;;;;;;;23.14;77.91;100343.75;10436165;28;20052;-69
2023/09/18 12:25:18;;;;;;;4.72;1.73;;;;;;;23.19;79.71;100347.63;10440597;28;20076;-70
2023/09/18 12:30:40;;;;;;;4.55;1.77;;;;;;;23.29;78.38;100347.66;10423327;28;20057;-70
2023/09/18 12:36:06;;;;;;;3.28;1.60;;;;;;;23.41;75.73;100336.00;10422876;28;20061;-69
2023/09/18 12:41:30;;;;;;;6.93;1.77;;;;;;;23.48;78.01;100352.94;10423400;28;20061;-70
2023/09/18 12:46:54;;;;;;;3.33;1.60;;;;;;;23.46;77.80;100337.25;10421163;28;20557;-70
2023/09/18 12:52:21;;;;;;;5.03;1.75;;;;;;;23.52;77.17;100349.06;10424473;28;20057;-70
2023/09/18 12:57:45;;;;;;;5.50;1.45;;;;;;;23.55;75.32;100343.50;10408714;28;20716;-70
2023/09/18 13:03:06;;;;;;;3.45;1.50;;;;;;;23.64;75.97;100347.97;10407722;28;20040;-69
2023/09/18 13:08:28;;;;;;;3.90;1.85;;;;;;;23.63;77.40;100346.28;10421595;28;20184;-70
2023/09/18 13:13:58;;;;;;;2.97;1.58;;;;;;;23.62;74.00;100345.44;10425747;28;20053;-69
2023/09/18 13:19:19;;;;;;;3.08;1.30;;;;;;;23.63;76.70;100340.97;10427464;28;20739;-69
2023/09/18 13:24:42;;;;;;;6.47;1.40;;;;;;;23.79;76.49;100330.66;10419682;28;20049;-71
2023/09/18 13:30:07;;;;;;;2.78;1.35;;;;;;;23.91;75.94;100329.53;10391349;28;21869;-71
2023/09/18 13:35:28;;;;;;;3.13;1.40;;;;;;;23.88;76.18;100322.72;10416098;28;20107;-70
2023/09/18 13:40:50;;;;;;;1.80;1.23;;;;;;;23.75;73.26;100318.72;10424757;28;20044;-71
2023/09/18 13:46:12;;;;;;;2.15;1.30;;;;;;;23.76;76.06;100321.22;10415134;28;20570;-69
2023/09/18 13:51:36;;;;;;;3.75;1.38;;;;;;;23.93;72.95;100317.00;10410874;28;20135;-70
2023/09/18 13:56:57;;;;;;;5.85;1.48;;;;;;;24.04;73.85;100319.50;10406585;28;20060;-71
2023/09/18 14:02:19;;;;;;;3.78;1.13;;;;;;;24.05;74.02;100309.75;10414983;28;20206;-70
2023/09/18 14:07:41;;;;;;;2.92;1.10;;;;;;;23.96;75.70;100290.28;10421461;28;20053;-70
2023/09/18 14:13:03;;;;;;;2.70;1.30;;;;;;;23.99;73.61;100295.25;10410685;28;20037;-70
2023/09/18 14:18:24;;;;;;;1.20;1.08;;;;;;;23.89;76.20;100283.91;10417137;28;20056;-71
2023/09/18 14:23:47;;;;;;;1.95;1.05;;;;;;;23.79;75.17;100283.94;10439397;28;20129;-69
2023/09/18 14:29:13;;;;;;;2.13;1.17;;;;;;;23.74;75.14;100290.63;10426576;28;20052;-69
2023/09/18 14:34:35;;;;;;;3.55;1.20;;;;;;;23.69;76.87;100285.78;10472779;28;20040;-68
2023/09/18 14:39:57;;;;;;;2.25;1.17;;;;;;;23.65;75.77;100286.19;10415169;28;20402;-71
2023/09/18 14:45:22;;;;;;;2.27;1.23;;;;;;;23.66;75.26;100277.31;10418970;28;20061;-70
2023/09/18 14:50:43;;;;;;;6.20;1.30;;;;;;;23.63;76.27;100282.84;10424645;28;20480;-70
2023/09/18 14:56:06;;;;;;;2.53;1.10;;;;;;;23.59;77.19;100287.59;10436366;28;20052;-70
2023/09/18 15:01:27;;;;;;;5.22;1.20;;;;;;;23.57;76.77;100278.97;10426490;28;20775;-70
2023/09/18 15:06:50;;;;;;;4.20;1.30;;;;;;;23.64;75.65;100279.25;10416933;28;20049;-70
2023/09/18 15:12:11;;;;;;;3.25;1.25;;;;;;;23.64;74.25;100279.25;10430617;28;20044;-71
2023/09/18 15:17:33;;;;;;;2.20;1.40;;;;;;;23.51;74.84;100281.34;10437581;28;20052;-70
2023/09/18 15:22:55;;;;;;;3.42;1.40;;;;;;;23.35;74.38;100284.56;10436072;28;20425;-71
2023/09/18 15:28:23;;;;;;;3.97;1.35;;;;;;;23.22;73.90;100272.59;10423338;28;20137;-72
2023/09/18 15:33:45;;;;;;;6.32;1.65;;;;;;;23.12;76.16;100271.75;10419055;28;20279;-70
2023/09/18 15:39:06;;;;;;;4.95;1.67;;;;;;;23.07;75.66;100285.41;10417684;28;20045;-70
2023/09/18 15:44:28;;;;;;;4.40;1.50;;;;;;;23.02;74.62;100292.06;10434787;28;20565;-70
2023/09/18 15:49:50;;;;;;;2.88;1.20;;;;;;;22.76;75.44;100305.75;10427684;28;20115;-71
2023/09/18 15:55:12;;;;;;;3.67;1.60;;;;;;;22.39;73.11;100304.69;10425991;28;20056;-68
2023/09/18 16:00:33;;;;;;;5.50;1.40;;;;;;;22.42;75.91;100293.84;10433961;28;20076;-70
2023/09/18 16:05:57;;;;;;;2.60;1.40;;;;;;;22.48;77.07;100282.78;10414732;28;20154;-69
2023/09/18 16:11:18;;;;;;;6.20;1.88;;;;;;;22.64;75.05;100275.19;10428934;28;20055;-69
2023/09/18 16:16:40;;;;;;;3.30;1.70;;;;;;;22.69;74.92;100277.44;10419456;28;20108;-71
2023/09/18 16:22:04;;;;;;;2.75;1.63;;;;;;;22.55;74.81;100268.09;10409663;28;20049;-69
2023/09/18 16:27:26;;;;;;;4.53;1.50;;;;;;;22.33;75.22;100265.66;10420646;28;20610;-70
2023/09/18 16:32:47;;;;;;;3.60;1.50;;;;;;;22.23;76.98;100261.31;10426642;28;20142;-70
2023/09/18 16:38:10;;;;;;;3.75;1.70;;;;;;;22.16;77.85;100266.28;10412225;28;20073;-70
2023/09/18 16:43:31;;;;;;;4.95;1.80;;;;;;;22.07;78.41;100253.91;10424514;28;20203;-70
2023/09/18 16:48:57;;;;;;;2.77;1.70;;;;;;;21.89;79.01;100242.31;10418439;28;21017;-70
2023/09/18 16:54:21;;;;;;;4.65;2.00;;;;;;;21.83;79.02;100240.19;10420456;28;20569;-69
2023/09/18 16:59:43;;;;;;;2.35;1.70;;;;;;;21.70;79.54;100232.47;10426460;28;20040;-69
2023/09/18 17:05:05;;;;;;;5.07;1.83;;;;;;;21.56;80.24;100235.47;10421428;28;20041;-70
2023/09/18 17:10:27;;;;;;;4.32;1.77;;;;;;;21.42;80.96;100221.81;10425942;28;20405;-70
2023/09/18 17:16:08;;;;;;;2.88;1.75;;;;;;;21.26;81.12;100216.97;10411657;28;20053;-69
2023/09/18 17:21:30;;;;;;;2.42;1.80;;;;;;;21.09;81.46;100209.69;10416567;28;20098;-69
2023/09/18 17:26:52;;;;;;;7.80;2.88;;;;;;;20.95;82.44;100221.31;10421492;28;20134;-70
2023/09/18 17:32:14;;;;;;;3.78;2.03;;;;;;;20.92;82.85;100224.19;10398052;28;20049;-70
2023/09/18 17:37:35;;;;;;;7.95;2.00;;;;;;;20.85;82.64;100236.19;10441156;28;20045;-71
2023/09/18 17:42:57;;;;;;;5.50;1.73;;;;;;;20.71;83.09;100225.94;10407842;28;20049;-71
2023/09/18 17:48:20;;;;;;;5.85;1.90;;;;;;;20.64;83.38;100224.78;10430682;28;20049;-72
2023/09/18 17:53:42;;;;;;;3.42;1.85;;;;;;;20.65;83.82;100223.00;10414887;28;20127;-70
2023/09/18 17:59:06;;;;;;;3.90;2.30;;;;;;;20.68;83.62;100214.84;10428470;28;20048;-69
2023/09/18 18:04:28;;;;;;;2.78;1.83;;;;;;;20.68;83.46;100220.09;10425854;28;20524;-69
2023/09/18 18:09:50;;;;;;;5.72;2.30;;;;;;;20.72;83.33;100222.38;10405675;28;20426;-71
2023/09/18 18:15:13;;;;;;;4.88;2.15;;;;;;;20.75;83.30;100205.47;10423549;28;20049;-70
2023/09/18 18:20:35;;;;;;;3.38;1.20;;;;;;;20.78;78.88;100340.25;10432212;28;20049;-70
2023/09/18 18:25:57;;;;;;;5.90;1.42;;;;;;;20.07;84.25;100342.38;10425445;28;20051;-71
2023/09/18 18:31:19;;;;;;;1.88;1.00;;;;;;;19.44;86.47;100360.38;10432043;28;20053;-70
2023/09/18 18:36:40;;;;;;;5.32;1.08;;;;;;;18.97;88.59;100375.13;10457593;28;20439;-70
2023/09/18 18:42:02;;;;;;;2.17;1.10;;;;;;;18.70;89.87;100363.13;10430269;28;20041;-70
2023/09/18 18:47:24;;;;;;;1.67;1.05;;;;;;;18.59;92.10;100355.19;10433372;28;20374;-70
2023/09/18 18:52:46;;;;;;;4.05;0.90;;;;;;;18.49;92.13;100346.31;10428694;28;20402;-71
2023/09/18 18:58:07;;;;;;;1.83;0.88;;;;;;;18.35;90.81;100354.28;10420113;28;20053;-71
2023/09/18 19:03:30;;;;;;;1.17;0.73;;;;;;;18.34;92.66;100329.84;10433878;28;20465;-71
2023/09/18 19:08:52;;;;;;;1.42;0.70;;;;;;;18.32;93.07;100321.28;10440158;28;20057;-71
2023/09/18 19:14:14;;;;;;;2.33;0.90;;;;;;;18.30;92.14;100312.69;10428098;28;20421;-69
2023/09/18 19:19:36;;;;;;;2.08;0.75;;;;;;;18.19;92.05;100312.59;10437243;28;20049;-69
2023/09/18 19:24:57;;;;;;;1.40;0.73;;;;;;;18.26;92.19;100311.22;10426600;28;20143;-70
2023/09/18 19:30:19;;;;;;;1.85;0.90;;;;;;;18.17;91.73;100280.41;10433721;28;20065;-70
2023/09/18 19:35:41;;;;;;;1.73;1.00;;;;;;;18.20;91.89;100275.00;10431091;28;20130;-70
2023/09/18 19:41:04;;;;;;;3.97;0.90;;;;;;;18.13;92.65;100271.09;10413852;28;20413;-70
2023/09/18 19:46:25;;;;;;;2.30;0.88;;;;;;;18.14;92.91;100259.69;10423298;28;20501;-71
2023/09/18 19:51:47;;;;;;;1.33;0.82;;;;;;;18.06;92.95;100264.63;10424601;28;20049;-70
2023/09/18 19:57:12;;;;;;;1.08;0.88;;;;;;;17.96;93.12;100248.69;10424289;28;20056;-71
2023/09/18 20:02:37;;;;;;;2.00;0.70;;;;;;;17.96;92.92;100245.28;10428810;28;20041;-71
2023/09/18 20:07:58;;;;;;;1.70;0.85;;;;;;;18.01;93.26;100244.00;10431822;28;20060;-73
2023/09/18 20:13:21;;;;;;;1.25;0.80;;;;;;;17.97;93.12;100231.22;10437357;28;20412;-71
2023/09/18 20:18:43;;;;;;;3.90;1.00;;;;;;;17.94;91.96;100232.28;10412582;28;20049;-71
2023/09/18 20:24:05;;;;;;;1.80;1.10;;;;;;;18.06;91.34;100246.28;10406237;28;20497;-71
2023/09/18 20:29:26;;;;;;;1.83;0.95;;;;;;;18.01;92.23;100243.16;10425843;28;20503;-72
2023/09/18 20:34:48;;;;;;;1.45;1.10;;;;;;;17.99;92.56;100239.81;10429749;28;20059;-72
2023/09/18 20:40:11;;;;;;;2.08;1.10;;;;;;;18.05;91.63;100244.63;10426276;28;20163;-70
2023/09/18 20:45:34;;;;;;;3.30;1.20;;;;;;;18.09;92.08;100248.72;10428478;28;20204;-71
2023/09/18 20:50:56;;;;;;;3.80;1.30;;;;;;;18.07;91.88;100255.84;10437591;28;20182;-71
2023/09/18 20:56:18;;;;;;;3.22;1.40;;;;;;;18.05;91.83;100242.00;10424154;28;20405;-71
2023/09/18 21:01:43;;;;;;;2.30;1.30;;;;;;;18.11;91.39;100259.91;10422265;28;20059;-71
2023/09/18 21:07:05;;;;;;;2.53;1.35;;;;;;;18.11;91.59;100259.06;10425269;28;20639;-72
2023/09/18 21:12:27;;;;;;;4.47;1.42;;;;;;;18.13;90.99;100265.84;10427613;28;20138;-71
2023/09/18 21:17:49;;;;;;;2.10;1.30;;;;;;;18.11;91.58;100265.16;10441648;28;20052;-71
2023/09/18 21:23:11;;;;;;;3.97;1.60;;;;;;;18.07;92.55;100266.31;10426033;28;20843;-71
2023/09/18 21:28:33;;;;;;;3.33;1.40;;;;;;;18.05;91.95;100270.81;10413574;28;20053;-69
2023/09/18 21:33:54;;;;;;;4.07;1.60;;;;;;;18.05;91.61;100283.91;10405048;28;20044;-70
2023/09/18 21:39:16;;;;;;;3.58;1.67;;;;;;;18.02;91.60;100281.47;10417826;28;22229;-70
2023/09/18 21:44:38;;;;;;;1.63;1.42;;;;;;;17.97;91.31;100283.59;10442770;28;20130;-69
2023/09/18 21:49:59;;;;;;;6.20;1.70;;;;;;;18.02;91.55;100289.34;10430336;28;20049;-69
2023/09/18 21:55:22;;;;;;;2.67;1.63;;;;;;;18.05;92.17;100286.53;10434696;28;20069;-70
2023/09/18 22:00:52;;;;;;;3.15;1.50;;;;;;;18.08;90.79;100278.44;10419189;28;20386;-70
2023/09/18 22:06:14;;;;;;;4.30;1.60;;;;;;;18.04;91.87;100280.44;10420160;28;20049;-70
2023/09/18 22:11:36;;;;;;;10.57;2.08;;;;;;;18.07;90.75;100285.47;10436190;28;20532;-70
2023/09/18 22:16:58;;;;;;;5.93;1.50;;;;;;;18.08;90.77;100296.78;10445312;28;20053;-70
2023/09/18 22:22:19;;;;;;;3.28;1.70;;;;;;;18.11;90.41;100312.31;10428416;28;20501;-69
2023/09/18 22:27:41;;;;;;;5.47;1.80;;;;;;;18.09;90.13;100319.41;10447042;28;20039;-67
2023/09/18 22:33:04;;;;;;;4.40;1.67;;;;;;;18.11;89.61;100328.00;10454689;28;20468;-69
2023/09/18 22:38:59;;;;;;;6.68;2.00;;;;;;;18.06;90.91;100317.00;10447201;28;20147;-69
2023/09/18 22:44:58;;;;;;;6.47;1.98;;;;;;;18.06;91.58;100322.22;10443936;28;20045;-69
2023/09/18 22:50:58;;;;;;;5.80;1.70;;;;;;;18.13;90.42;100331.34;10432095;28;20056;-69
2023/09/18 22:56:22;;;;;;;7.07;1.88;;;;;;;18.14;89.67;100335.66;10433117;28;20532;-69
2023/09/18 23:01:45;;;;;;;3.73;1.60;;;;;;;18.13;90.75;100336.56;10438298;28;20508;-69
2023/09/18 23:07:07;;;;;;;3.95;1.70;;;;;;;18.13;90.04;100360.16;10449418;28;20041;-69
2023/09/18 23:12:34;;;;;;;5.72;1.80;;;;;;;18.07;90.54;100371.88;10438861;28;20049;-70
2023/09/18 23:17:56;;;;;;;7.45;2.05;;;;;;;17.95;91.43;100380.59;10422164;28;20056;-69
2023/09/18 23:23:18;;;;;;;6.40;1.65;;;;;;;17.82;92.46;100378.88;10430070;28;20037;-69
2023/09/18 23:28:42;;;;;;;7.72;1.73;;;;;;;17.71;92.44;100376.13;10432125;28;20051;-69
2023/09/18 23:34:06;;;;;;;6.75;1.60;;;;;;;17.66;91.91;100396.53;10437244;28;20053;-68
2023/09/18 23:39:29;;;;;;;5.32;1.80;;;;;;;17.53;92.46;100398.28;10429634;28;20047;-68
2023/09/18 23:44:51;;;;;;;3.92;1.50;;;;;;;17.49;92.89;100391.59;10438869;28;20465;-68
2023/09/18 23:50:18;;;;;;;4.90;1.90;;;;;;;17.45;93.52;100390.09;10427097;28;20057;-69
2023/09/18 23:55:41;;;;;;;3.92;1.83;;;;;;;17.44;94.61;100402.31;10434465;28;20496;-69
